Orbital elements of COSMOS 1275 DEB
| Launched | 3 June 1981 |
| Flight ended | – |
| Launch site | Plesetsk Missile and Space Complex, Russia |
| Owner | Commonwealth of Independent States (former USSR) |
| NORAD ID | 19853 |
| Date fetched |
Epoch osculation |
Inc. [°] |
Ecc. | RA asc node [hr] |
Arg Peri. [°] |
Mean anom [°] |
Mean motion [rev/day] |
Abs. mag |
| Date fetched |
Epoch osculation |
Inc. [°] |
Ecc. | RA asc node [hr] |
Arg Peri. [°] |
Mean anom [°] |
Mean motion [rev/day] |
Abs. mag |
| 2026 May 08 17:57 | 2026 May 04 22:20:23 | 82.9873 | 0.01184 | 19.7003 | 351.8506 | 160.8870 | 13.68571 | – |
| 2026 May 07 17:58 | 2026 May 04 22:20:23 | 82.9873 | 0.01184 | 19.7003 | 351.8506 | 160.8870 | 13.68571 | – |
| 2026 May 06 17:57 | 2026 May 04 22:20:23 | 82.9873 | 0.01184 | 19.7003 | 351.8506 | 160.8870 | 13.68571 | – |
| 2026 May 05 17:57 | 2026 May 04 22:20:23 | 82.9873 | 0.01184 | 19.7003 | 351.8506 | 160.8870 | 13.68571 | – |
| 2026 May 04 17:57 | 2026 Apr 29 11:53:30 | 82.9873 | 0.01189 | 19.9643 | 6.9153 | 160.8870 | 13.68571 | – |
| 2026 May 03 17:57 | 2026 Apr 29 11:53:30 | 82.9873 | 0.01189 | 19.9643 | 6.9153 | 160.8870 | 13.68571 | – |
| 2026 May 02 17:57 | 2026 Apr 29 11:53:30 | 82.9873 | 0.01189 | 19.9643 | 6.9153 | 160.8870 | 13.68571 | – |
| 2026 May 01 17:56 | 2026 Apr 29 11:53:30 | 82.9873 | 0.01189 | 19.9643 | 6.9153 | 160.8870 | 13.68571 | – |
| 2026 Apr 30 17:56 | 2026 Apr 29 11:53:30 | 82.9873 | 0.01189 | 19.9643 | 6.9153 | 160.8870 | 13.68571 | – |
| 2026 Apr 29 17:57 | 2026 Apr 23 00:20:33 | 82.9873 | 0.01195 | 20.2790 | 24.7624 | 160.8870 | 13.68571 | – |
| 2026 Apr 28 17:56 | 2026 Apr 23 00:20:33 | 82.9873 | 0.01195 | 20.2790 | 24.7624 | 160.8870 | 13.68571 | – |
| 2026 Apr 27 17:58 | 2026 Apr 23 00:20:33 | 82.9873 | 0.01195 | 20.2790 | 24.7624 | 160.8870 | 13.68571 | – |
| 2026 Apr 26 17:58 | 2026 Apr 23 00:20:33 | 82.9873 | 0.01195 | 20.2790 | 24.7624 | 160.8870 | 13.68571 | – |
| 2026 Apr 25 17:58 | 2026 Apr 23 00:20:33 | 82.9873 | 0.01195 | 20.2790 | 24.7624 | 160.8870 | 13.68571 | – |
| 2026 Apr 24 17:59 | 2026 Apr 23 00:20:33 | 82.9873 | 0.01195 | 20.2790 | 24.7624 | 160.8870 | 13.68571 | – |
| 2026 Apr 23 17:57 | 2026 Apr 18 23:49:34 | 82.9878 | 0.01197 | 20.4743 | 35.7171 | 160.8870 | 13.68571 | – |
| 2026 Apr 22 17:57 | 2026 Apr 18 23:49:34 | 82.9878 | 0.01197 | 20.4743 | 35.7171 | 160.8870 | 13.68571 | – |
| 2026 Apr 21 17:57 | 2026 Apr 18 23:49:34 | 82.9878 | 0.01197 | 20.4743 | 35.7171 | 160.8870 | 13.68571 | – |
| 2026 Apr 20 17:57 | 2026 Apr 18 23:49:34 | 82.9878 | 0.01197 | 20.4743 | 35.7171 | 160.8870 | 13.68571 | – |
| 2026 Apr 19 17:58 | 2026 Apr 18 23:49:34 | 82.9878 | 0.01197 | 20.4743 | 35.7171 | 160.8870 | 13.68571 | – |
| 2026 Apr 18 17:56 | 2026 Apr 12 01:07:43 | 82.9885 | 0.01200 | 20.8115 | 54.7135 | 160.8870 | 13.68571 | – |
| 2026 Apr 16 17:57 | 2026 Apr 12 01:07:43 | 82.9885 | 0.01200 | 20.8115 | 54.7135 | 160.8870 | 13.68571 | – |
| 2026 Apr 14 17:57 | 2026 Apr 12 01:07:43 | 82.9885 | 0.01200 | 20.8115 | 54.7135 | 160.8870 | 13.68571 | – |
| 2026 Apr 13 17:57 | 2026 Apr 12 01:07:43 | 82.9885 | 0.01200 | 20.8115 | 54.7135 | 160.8870 | 13.68571 | – |
| 2026 Apr 12 17:57 | 2026 Apr 08 14:04:05 | 82.9892 | 0.01199 | 20.9795 | 64.1507 | 160.8870 | 13.68571 | – |
| 2026 Apr 11 17:57 | 2026 Apr 08 14:04:05 | 82.9892 | 0.01199 | 20.9795 | 64.1507 | 160.8870 | 13.68571 | – |